首页
METAR-TAF:

METAR-TAF

机场 :

Longville Municipal Airport

Longville, 明尼蘇達州, 美国

纬度: 46-59-25N, 经度: 094-12-14W, 海拔: 407米

当前天气观测

该预报发布于18分钟前的21:33 UTC
风速3节,风向西转西南
温度 24°C
湿度 41%
气压 1017 hPa
能見度: 16.1公里
天空无云

METAR: KXVG 142133Z AUTO 25003KT 10SM CLR 24/10 A3004 RMK AO2

时间: 16:51 (21:51 UTC)


TAF: 丢失

超过4000个机场的气象观测和天气预报(METAR&TAF报告)。

可查询的气象台以黄色和红色小点在地图上表示。

将鼠标移到小点上方,可查看气象台名称。

然后点击查看天气观测和预报。

如需切换地图:点击带黑十字的绿色按钮放大地图;点击带横线的绿色按钮缩小地图;或者点击绿色箭头查看邻近地区的地图。


METAR-TAF: